sensor_id;sensor_type;location;lat;lon;timestamp;temperature;humidity
16247;DHT22;8231;50.866;7.944;2023-05-07T00:00:18;12.50;99.90
16247;DHT22;8231;50.866;7.944;2023-05-07T00:02:47;12.50;99.90
16247;DHT22;8231;50.866;7.944;2023-05-07T00:05:15;12.40;99.90
16247;DHT22;8231;50.866;7.944;2023-05-07T00:07:44;12.50;99.90
16247;DHT22;8231;50.866;7.944;2023-05-07T00:10:12;12.40;99.90
16247;DHT22;8231;50.866;7.944;2023-05-07T00:13:03;12.40;99.90
16247;DHT22;8231;50.866;7.944;2023-05-07T00:15:32;12.40;99.90
16247;DHT22;8231;50.866;7.944;2023-05-07T00:18:00;12.50;99.90
16247;DHT22;8231;50.866;7.944;2023-05-07T00:20:29;12.40;99.90
16247;DHT22;8231;50.866;7.944;2023-05-07T00:22:57;12.40;99.90
16247;DHT22;8231;50.866;7.944;2023-05-07T00:25:25;12.40;99.90
16247;DHT22;8231;50.866;7.944;2023-05-07T00:27:53;12.50;99.90
16247;DHT22;8231;50.866;7.944;2023-05-07T00:30:22;12.40;99.90
16247;DHT22;8231;50.866;7.944;2023-05-07T00:32:51;12.40;99.90
16247;DHT22;8231;50.866;7.944;2023-05-07T00:35:19;12.50;99.90
16247;DHT22;8231;50.866;7.944;2023-05-07T00:37:47;12.40;99.90
16247;DHT22;8231;50.866;7.944;2023-05-07T00:40:16;12.40;99.90
16247;DHT22;8231;50.866;7.944;2023-05-07T00:42:44;12.40;99.90
16247;DHT22;8231;50.866;7.944;2023-05-07T00:45:14;12.30;99.90
16247;DHT22;8231;50.866;7.944;2023-05-07T00:51:59;12.30;99.90
16247;DHT22;8231;50.866;7.944;2023-05-07T00:54:27;12.40;99.90
16247;DHT22;8231;50.866;7.944;2023-05-07T00:56:56;12.30;99.90
16247;DHT22;8231;50.866;7.944;2023-05-07T00:59:24;12.60;99.90
16247;DHT22;8231;50.866;7.944;2023-05-07T01:01:52;12.30;99.90
16247;DHT22;8231;50.866;7.944;2023-05-07T01:04:20;12.30;99.90
16247;DHT22;8231;50.866;7.944;2023-05-07T01:06:50;12.30;99.90
16247;DHT22;8231;50.866;7.944;2023-05-07T01:09:20;12.40;99.90
16247;DHT22;8231;50.866;7.944;2023-05-07T01:11:49;12.40;99.90
16247;DHT22;8231;50.866;7.944;2023-05-07T01:14:19;12.60;99.90
16247;DHT22;8231;50.866;7.944;2023-05-07T01:16:48;12.40;99.90
16247;DHT22;8231;50.866;7.944;2023-05-07T01:19:20;12.40;99.90
16247;DHT22;8231;50.866;7.944;2023-05-07T01:21:49;12.40;99.90
16247;DHT22;8231;50.866;7.944;2023-05-07T01:24:22;12.40;99.90
16247;DHT22;8231;50.866;7.944;2023-05-07T01:26:50;12.50;99.90
16247;DHT22;8231;50.866;7.944;2023-05-07T01:29:19;12.50;99.90
16247;DHT22;8231;50.866;7.944;2023-05-07T01:31:48;12.50;99.90
16247;DHT22;8231;50.866;7.944;2023-05-07T01:34:20;12.50;99.90
16247;DHT22;8231;50.866;7.944;2023-05-07T01:36:50;12.50;99.90
16247;DHT22;8231;50.866;7.944;2023-05-07T01:39:18;12.50;99.90
16247;DHT22;8231;50.866;7.944;2023-05-07T01:41:48;12.50;99.90
16247;DHT22;8231;50.866;7.944;2023-05-07T01:44:18;12.50;99.90
16247;DHT22;8231;50.866;7.944;2023-05-07T01:46:46;12.50;99.90
16247;DHT22;8231;50.866;7.944;2023-05-07T01:49:16;12.50;99.90
16247;DHT22;8231;50.866;7.944;2023-05-07T01:51:45;12.50;99.90
16247;DHT22;8231;50.866;7.944;2023-05-07T01:54:13;12.50;99.90
16247;DHT22;8231;50.866;7.944;2023-05-07T01:56:41;12.60;99.90
16247;DHT22;8231;50.866;7.944;2023-05-07T01:59:11;12.60;99.90
16247;DHT22;8231;50.866;7.944;2023-05-07T02:01:40;12.50;99.90
16247;DHT22;8231;50.866;7.944;2023-05-07T02:04:10;12.50;99.90
16247;DHT22;8231;50.866;7.944;2023-05-07T02:06:38;12.50;99.90
16247;DHT22;8231;50.866;7.944;2023-05-07T02:09:11;12.50;99.90
16247;DHT22;8231;50.866;7.944;2023-05-07T02:11:41;12.50;99.90
16247;DHT22;8231;50.866;7.944;2023-05-07T02:14:11;12.50;99.90
16247;DHT22;8231;50.866;7.944;2023-05-07T02:16:39;12.50;99.90
16247;DHT22;8231;50.866;7.944;2023-05-07T02:19:09;12.40;99.90
16247;DHT22;8231;50.866;7.944;2023-05-07T02:21:38;12.60;99.90
16247;DHT22;8231;50.866;7.944;2023-05-07T02:24:06;12.40;99.90
16247;DHT22;8231;50.866;7.944;2023-05-07T02:26:34;12.50;99.90
16247;DHT22;8231;50.866;7.944;2023-05-07T02:29:03;12.50;99.90
16247;DHT22;8231;50.866;7.944;2023-05-07T02:31:33;12.40;99.90
16247;DHT22;8231;50.866;7.944;2023-05-07T02:34:02;12.40;99.90
16247;DHT22;8231;50.866;7.944;2023-05-07T02:36:30;12.40;99.90
16247;DHT22;8231;50.866;7.944;2023-05-07T02:39:05;12.40;99.90
16247;DHT22;8231;50.866;7.944;2023-05-07T02:41:33;12.50;99.90
16247;DHT22;8231;50.866;7.944;2023-05-07T02:44:01;12.60;99.90
16247;DHT22;8231;50.866;7.944;2023-05-07T02:46:30;12.90;99.90
16247;DHT22;8231;50.866;7.944;2023-05-07T02:49:04;12.40;99.90
16247;DHT22;8231;50.866;7.944;2023-05-07T02:51:33;12.50;99.90
16247;DHT22;8231;50.866;7.944;2023-05-07T02:54:05;12.50;99.90
16247;DHT22;8231;50.866;7.944;2023-05-07T02:56:34;12.50;99.90
16247;DHT22;8231;50.866;7.944;2023-05-07T02:59:02;12.50;99.90
16247;DHT22;8231;50.866;7.944;2023-05-07T03:01:33;12.50;99.90
16247;DHT22;8231;50.866;7.944;2023-05-07T03:04:06;12.40;99.90
16247;DHT22;8231;50.866;7.944;2023-05-07T03:06:34;12.90;99.90
16247;DHT22;8231;50.866;7.944;2023-05-07T03:09:03;12.40;99.90
16247;DHT22;8231;50.866;7.944;2023-05-07T03:11:31;12.40;99.90
16247;DHT22;8231;50.866;7.944;2023-05-07T03:14:00;12.40;99.90
16247;DHT22;8231;50.866;7.944;2023-05-07T03:16:28;12.40;99.90
16247;DHT22;8231;50.866;7.944;2023-05-07T03:18:57;12.40;99.90
16247;DHT22;8231;50.866;7.944;2023-05-07T03:21:26;12.40;99.90
16247;DHT22;8231;50.866;7.944;2023-05-07T03:23:55;12.40;99.90
16247;DHT22;8231;50.866;7.944;2023-05-07T03:26:23;12.50;99.90
16247;DHT22;8231;50.866;7.944;2023-05-07T03:28:52;12.80;99.90
16247;DHT22;8231;50.866;7.944;2023-05-07T03:31:20;12.40;99.90
16247;DHT22;8231;50.866;7.944;2023-05-07T03:33:53;12.50;99.90
16247;DHT22;8231;50.866;7.944;2023-05-07T03:36:21;12.50;99.90
16247;DHT22;8231;50.866;7.944;2023-05-07T03:38:51;12.50;99.90
16247;DHT22;8231;50.866;7.944;2023-05-07T03:41:23;12.60;99.90
16247;DHT22;8231;50.866;7.944;2023-05-07T03:43:51;12.50;99.90
16247;DHT22;8231;50.866;7.944;2023-05-07T03:46:19;12.40;99.90
16247;DHT22;8231;50.866;7.944;2023-05-07T03:48:48;12.50;99.90
16247;DHT22;8231;50.866;7.944;2023-05-07T03:51:19;13.20;99.90
16247;DHT22;8231;50.866;7.944;2023-05-07T03:53:47;12.40;99.90
16247;DHT22;8231;50.866;7.944;2023-05-07T03:56:18;12.40;99.90
16247;DHT22;8231;50.866;7.944;2023-05-07T03:58:50;12.40;99.90
16247;DHT22;8231;50.866;7.944;2023-05-07T04:01:19;12.50;99.90
16247;DHT22;8231;50.866;7.944;2023-05-07T04:03:47;12.50;99.90
16247;DHT22;8231;50.866;7.944;2023-05-07T04:24:04;12.80;99.90
16247;DHT22;8231;50.866;7.944;2023-05-07T04:26:33;12.50;99.90
16247;DHT22;8231;50.866;7.944;2023-05-07T04:29:01;12.50;99.90
16247;DHT22;8231;50.866;7.944;2023-05-07T04:31:33;12.70;99.90
16247;DHT22;8231;50.866;7.944;2023-05-07T04:34:01;12.60;99.90
16247;DHT22;8231;50.866;7.944;2023-05-07T04:36:30;12.70;99.90
16247;DHT22;8231;50.866;7.944;2023-05-07T04:39:05;12.70;99.90
16247;DHT22;8231;50.866;7.944;2023-05-07T04:41:34;12.80;99.90
16247;DHT22;8231;50.866;7.944;2023-05-07T04:44:05;12.80;99.90
16247;DHT22;8231;50.866;7.944;2023-05-07T04:46:34;12.80;99.90
16247;DHT22;8231;50.866;7.944;2023-05-07T04:49:03;12.90;99.90
16247;DHT22;8231;50.866;7.944;2023-05-07T04:51:32;12.90;99.90
16247;DHT22;8231;50.866;7.944;2023-05-07T04:54:01;12.90;99.90
16247;DHT22;8231;50.866;7.944;2023-05-07T04:56:31;13.00;99.90
16247;DHT22;8231;50.866;7.944;2023-05-07T04:59:01;13.00;99.90
16247;DHT22;8231;50.866;7.944;2023-05-07T05:01:30;13.10;99.90
16247;DHT22;8231;50.866;7.944;2023-05-07T05:03:59;13.40;99.90
16247;DHT22;8231;50.866;7.944;2023-05-07T05:06:29;13.30;99.90
16247;DHT22;8231;50.866;7.944;2023-05-07T05:08:57;13.20;99.90
16247;DHT22;8231;50.866;7.944;2023-05-07T05:11:26;13.30;99.90
16247;DHT22;8231;50.866;7.944;2023-05-07T05:13:56;13.30;99.90
16247;DHT22;8231;50.866;7.944;2023-05-07T05:16:24;13.40;99.90
16247;DHT22;8231;50.866;7.944;2023-05-07T05:18:52;13.40;99.90
16247;DHT22;8231;50.866;7.944;2023-05-07T05:21:21;13.60;99.90
16247;DHT22;8231;50.866;7.944;2023-05-07T05:23:54;13.50;99.90
16247;DHT22;8231;50.866;7.944;2023-05-07T05:26:24;13.50;99.90
16247;DHT22;8231;50.866;7.944;2023-05-07T05:28:53;13.60;99.90
16247;DHT22;8231;50.866;7.944;2023-05-07T05:31:25;13.60;99.90
16247;DHT22;8231;50.866;7.944;2023-05-07T05:33:53;13.60;99.90
16247;DHT22;8231;50.866;7.944;2023-05-07T05:36:21;13.70;99.90
16247;DHT22;8231;50.866;7.944;2023-05-07T05:38:52;13.80;99.90
16247;DHT22;8231;50.866;7.944;2023-05-07T05:41:21;13.80;99.90
16247;DHT22;8231;50.866;7.944;2023-05-07T05:43:50;14.10;99.90
16247;DHT22;8231;50.866;7.944;2023-05-07T05:46:19;14.00;99.90
16247;DHT22;8231;50.866;7.944;2023-05-07T05:48:51;14.10;99.90
16247;DHT22;8231;50.866;7.944;2023-05-07T05:51:21;14.50;99.90
16247;DHT22;8231;50.866;7.944;2023-05-07T05:53:49;14.80;99.90
16247;DHT22;8231;50.866;7.944;2023-05-07T05:56:19;15.10;99.90
16247;DHT22;8231;50.866;7.944;2023-05-07T05:58:48;15.10;99.90
16247;DHT22;8231;50.866;7.944;2023-05-07T06:01:17;15.10;99.90
16247;DHT22;8231;50.866;7.944;2023-05-07T06:03:47;15.20;99.90
16247;DHT22;8231;50.866;7.944;2023-05-07T06:06:18;15.10;99.90
16247;DHT22;8231;50.866;7.944;2023-05-07T06:08:46;15.10;99.90
16247;DHT22;8231;50.866;7.944;2023-05-07T06:11:20;15.20;99.90
16247;DHT22;8231;50.866;7.944;2023-05-07T06:13:48;15.30;99.90
16247;DHT22;8231;50.866;7.944;2023-05-07T06:16:16;15.50;99.90
16247;DHT22;8231;50.866;7.944;2023-05-07T06:18:45;15.50;99.90
16247;DHT22;8231;50.866;7.944;2023-05-07T06:21:14;15.70;99.90
16247;DHT22;8231;50.866;7.944;2023-05-07T06:23:44;15.90;99.90
16247;DHT22;8231;50.866;7.944;2023-05-07T06:26:13;16.00;99.90
16247;DHT22;8231;50.866;7.944;2023-05-07T06:28:45;16.40;99.90
16247;DHT22;8231;50.866;7.944;2023-05-07T06:31:16;17.10;99.90
16247;DHT22;8231;50.866;7.944;2023-05-07T06:33:51;17.50;99.90
16247;DHT22;8231;50.866;7.944;2023-05-07T06:36:22;17.70;99.90
16247;DHT22;8231;50.866;7.944;2023-05-07T06:38:54;17.80;99.90
16247;DHT22;8231;50.866;7.944;2023-05-07T06:41:22;17.80;99.90
16247;DHT22;8231;50.866;7.944;2023-05-07T06:43:51;18.30;99.90
16247;DHT22;8231;50.866;7.944;2023-05-07T06:46:51;18.50;99.90
16247;DHT22;8231;50.866;7.944;2023-05-07T06:49:20;18.60;99.90
16247;DHT22;8231;50.866;7.944;2023-05-07T06:51:49;18.70;99.90
16247;DHT22;8231;50.866;7.944;2023-05-07T06:54:20;18.50;99.90
16247;DHT22;8231;50.866;7.944;2023-05-07T06:56:51;18.40;99.90
16247;DHT22;8231;50.866;7.944;2023-05-07T06:59:19;18.40;99.90
16247;DHT22;8231;50.866;7.944;2023-05-07T07:01:48;18.40;99.90
16247;DHT22;8231;50.866;7.944;2023-05-07T07:04:17;18.60;99.90
16247;DHT22;8231;50.866;7.944;2023-05-07T07:06:53;18.80;99.90
16247;DHT22;8231;50.866;7.944;2023-05-07T07:09:23;18.90;99.90
16247;DHT22;8231;50.866;7.944;2023-05-07T07:11:53;18.90;99.90
16247;DHT22;8231;50.866;7.944;2023-05-07T07:14:21;19.20;99.90
16247;DHT22;8231;50.866;7.944;2023-05-07T07:16:51;19.10;99.90
16247;DHT22;8231;50.866;7.944;2023-05-07T07:19:21;19.20;99.90
16247;DHT22;8231;50.866;7.944;2023-05-07T07:21:53;19.20;99.90
16247;DHT22;8231;50.866;7.944;2023-05-07T07:24:21;19.20;99.90
16247;DHT22;8231;50.866;7.944;2023-05-07T07:26:56;19.10;99.90
16247;DHT22;8231;50.866;7.944;2023-05-07T07:29:26;19.00;99.90
16247;DHT22;8231;50.866;7.944;2023-05-07T07:31:55;19.00;99.90
16247;DHT22;8231;50.866;7.944;2023-05-07T07:34:23;18.90;99.90
16247;DHT22;8231;50.866;7.944;2023-05-07T07:36:52;19.10;99.90
16247;DHT22;8231;50.866;7.944;2023-05-07T07:39:20;19.40;99.90
16247;DHT22;8231;50.866;7.944;2023-05-07T07:41:51;19.50;99.90
16247;DHT22;8231;50.866;7.944;2023-05-07T07:44:22;19.70;99.90
16247;DHT22;8231;50.866;7.944;2023-05-07T07:46:56;19.70;99.90
16247;DHT22;8231;50.866;7.944;2023-05-07T07:49:26;19.90;99.90
16247;DHT22;8231;50.866;7.944;2023-05-07T07:51:56;19.90;99.90
16247;DHT22;8231;50.866;7.944;2023-05-07T07:54:26;20.00;99.90
16247;DHT22;8231;50.866;7.944;2023-05-07T07:56:56;20.30;99.90
16247;DHT22;8231;50.866;7.944;2023-05-07T07:59:26;20.50;99.90
16247;DHT22;8231;50.866;7.944;2023-05-07T08:01:54;20.60;99.90
16247;DHT22;8231;50.866;7.944;2023-05-07T08:04:26;20.90;99.90
16247;DHT22;8231;50.866;7.944;2023-05-07T08:06:56;21.20;99.90
16247;DHT22;8231;50.866;7.944;2023-05-07T08:09:25;21.30;99.90
16247;DHT22;8231;50.866;7.944;2023-05-07T08:11:54;21.60;99.90
16247;DHT22;8231;50.866;7.944;2023-05-07T08:14:23;21.90;99.90
16247;DHT22;8231;50.866;7.944;2023-05-07T08:16:52;21.80;99.90
16247;DHT22;8231;50.866;7.944;2023-05-07T08:19:21;21.80;99.90
16247;DHT22;8231;50.866;7.944;2023-05-07T08:21:50;21.80;99.90
16247;DHT22;8231;50.866;7.944;2023-05-07T08:24:19;21.80;99.90
16247;DHT22;8231;50.866;7.944;2023-05-07T08:26:48;21.60;99.90
16247;DHT22;8231;50.866;7.944;2023-05-07T08:29:18;21.50;99.90
16247;DHT22;8231;50.866;7.944;2023-05-07T08:31:47;21.40;99.90
16247;DHT22;8231;50.866;7.944;2023-05-07T08:34:17;21.40;99.90
16247;DHT22;8231;50.866;7.944;2023-05-07T08:36:47;21.80;99.90
16247;DHT22;8231;50.866;7.944;2023-05-07T08:39:18;22.20;99.90
16247;DHT22;8231;50.866;7.944;2023-05-07T08:41:50;22.60;99.90
16247;DHT22;8231;50.866;7.944;2023-05-07T08:44:26;22.90;99.90
16247;DHT22;8231;50.866;7.944;2023-05-07T08:46:57;23.10;99.90
16247;DHT22;8231;50.866;7.944;2023-05-07T08:49:28;22.90;99.90
16247;DHT22;8231;50.866;7.944;2023-05-07T08:51:57;23.10;99.90
16247;DHT22;8231;50.866;7.944;2023-05-07T08:54:28;23.40;99.90
16247;DHT22;8231;50.866;7.944;2023-05-07T08:56:57;23.70;99.90
16247;DHT22;8231;50.866;7.944;2023-05-07T08:59:26;24.20;99.90
16247;DHT22;8231;50.866;7.944;2023-05-07T09:01:55;24.50;99.90
16247;DHT22;8231;50.866;7.944;2023-05-07T09:04:23;24.60;99.90
16247;DHT22;8231;50.866;7.944;2023-05-07T09:06:53;24.60;99.90
16247;DHT22;8231;50.866;7.944;2023-05-07T09:09:23;24.60;99.90
16247;DHT22;8231;50.866;7.944;2023-05-07T09:11:57;24.50;99.90
16247;DHT22;8231;50.866;7.944;2023-05-07T09:14:28;24.50;99.90
16247;DHT22;8231;50.866;7.944;2023-05-07T09:16:58;24.70;99.90
16247;DHT22;8231;50.866;7.944;2023-05-07T09:19:27;24.60;99.90
16247;DHT22;8231;50.866;7.944;2023-05-07T09:22:00;24.70;99.90
16247;DHT22;8231;50.866;7.944;2023-05-07T09:24:35;24.60;99.90
16247;DHT22;8231;50.866;7.944;2023-05-07T09:27:07;24.80;99.90
16247;DHT22;8231;50.866;7.944;2023-05-07T09:29:43;25.00;99.90
16247;DHT22;8231;50.866;7.944;2023-05-07T09:32:14;25.20;99.90
16247;DHT22;8231;50.866;7.944;2023-05-07T09:34:43;25.20;99.90
16247;DHT22;8231;50.866;7.944;2023-05-07T09:37:14;25.20;99.90
16247;DHT22;8231;50.866;7.944;2023-05-07T09:39:44;25.50;99.90
16247;DHT22;8231;50.866;7.944;2023-05-07T09:42:15;25.90;99.90
16247;DHT22;8231;50.866;7.944;2023-05-07T09:44:44;25.80;98.90
16247;DHT22;8231;50.866;7.944;2023-05-07T09:47:19;25.70;99.50
16247;DHT22;8231;50.866;7.944;2023-05-07T09:49:55;25.80;98.70
16247;DHT22;8231;50.866;7.944;2023-05-07T09:52:26;25.80;98.00
16247;DHT22;8231;50.866;7.944;2023-05-07T09:55:02;25.80;99.50
16247;DHT22;8231;50.866;7.944;2023-05-07T09:57:34;26.20;99.10
16247;DHT22;8231;50.866;7.944;2023-05-07T10:00:07;26.30;98.10
16247;DHT22;8231;50.866;7.944;2023-05-07T10:02:49;26.50;97.70
16247;DHT22;8231;50.866;7.944;2023-05-07T10:05:25;26.40;97.30
16247;DHT22;8231;50.866;7.944;2023-05-07T10:07:58;26.30;97.20
16247;DHT22;8231;50.866;7.944;2023-05-07T10:10:32;26.40;97.70
16247;DHT22;8231;50.866;7.944;2023-05-07T10:13:01;26.70;96.10
16247;DHT22;8231;50.866;7.944;2023-05-07T10:15:34;26.80;96.10
16247;DHT22;8231;50.866;7.944;2023-05-07T10:18:03;26.80;96.60
16247;DHT22;8231;50.866;7.944;2023-05-07T10:20:33;26.80;95.80
16247;DHT22;8231;50.866;7.944;2023-05-07T10:23:06;26.60;95.30
16247;DHT22;8231;50.866;7.944;2023-05-07T10:25:41;26.50;95.50
16247;DHT22;8231;50.866;7.944;2023-05-07T10:28:17;26.40;96.40
16247;DHT22;8231;50.866;7.944;2023-05-07T10:30:58;26.10;95.70
16247;DHT22;8231;50.866;7.944;2023-05-07T10:33:37;25.80;97.00
16247;DHT22;8231;50.866;7.944;2023-05-07T10:36:08;25.70;96.00
16247;DHT22;8231;50.866;7.944;2023-05-07T10:38:37;25.40;96.10
16247;DHT22;8231;50.866;7.944;2023-05-07T10:41:08;25.40;96.90
16247;DHT22;8231;50.866;7.944;2023-05-07T10:43:40;25.60;96.30
16247;DHT22;8231;50.866;7.944;2023-05-07T10:46:15;25.60;95.60
16247;DHT22;8231;50.866;7.944;2023-05-07T10:49:11;25.50;95.20
16247;DHT22;8231;50.866;7.944;2023-05-07T10:52:13;25.80;94.30
16247;DHT22;8231;50.866;7.944;2023-05-07T10:55:22;25.60;94.40
16247;DHT22;8231;50.866;7.944;2023-05-07T10:58:23;25.60;93.80
16247;DHT22;8231;50.866;7.944;2023-05-07T11:01:07;25.80;94.40
16247;DHT22;8231;50.866;7.944;2023-05-07T11:04:12;26.00;93.90
16247;DHT22;8231;50.866;7.944;2023-05-07T11:07:31;25.80;92.70
16247;DHT22;8231;50.866;7.944;2023-05-07T11:10:06;25.80;93.80
16247;DHT22;8231;50.866;7.944;2023-05-07T11:12:55;25.80;92.90
16247;DHT22;8231;50.866;7.944;2023-05-07T11:15:46;25.60;92.60
16247;DHT22;8231;50.866;7.944;2023-05-07T11:18:46;25.40;92.50
16247;DHT22;8231;50.866;7.944;2023-05-07T11:21:33;25.60;92.10
16247;DHT22;8231;50.866;7.944;2023-05-07T11:24:16;25.40;91.90
16247;DHT22;8231;50.866;7.944;2023-05-07T11:27:04;25.10;91.50
16247;DHT22;8231;50.866;7.944;2023-05-07T11:29:34;24.90;91.90
16247;DHT22;8231;50.866;7.944;2023-05-07T11:32:12;24.70;92.60
16247;DHT22;8231;50.866;7.944;2023-05-07T11:34:51;24.80;93.90
16247;DHT22;8231;50.866;7.944;2023-05-07T11:37:20;24.80;93.80
16247;DHT22;8231;50.866;7.944;2023-05-07T11:40:03;24.80;92.50
16247;DHT22;8231;50.866;7.944;2023-05-07T11:42:33;24.80;92.70
16247;DHT22;8231;50.866;7.944;2023-05-07T11:45:04;24.70;92.70
16247;DHT22;8231;50.866;7.944;2023-05-07T11:47:34;24.70;93.10
16247;DHT22;8231;50.866;7.944;2023-05-07T11:50:04;24.60;93.40
16247;DHT22;8231;50.866;7.944;2023-05-07T11:52:33;24.60;93.00
16247;DHT22;8231;50.866;7.944;2023-05-07T11:55:02;24.60;92.90
16247;DHT22;8231;50.866;7.944;2023-05-07T11:57:33;24.40;92.70
16247;DHT22;8231;50.866;7.944;2023-05-07T12:00:03;24.10;92.60
16247;DHT22;8231;50.866;7.944;2023-05-07T12:02:42;24.00;93.30
16247;DHT22;8231;50.866;7.944;2023-05-07T12:05:10;23.80;93.70
16247;DHT22;8231;50.866;7.944;2023-05-07T12:07:40;23.70;94.10
16247;DHT22;8231;50.866;7.944;2023-05-07T12:10:11;23.60;94.00
16247;DHT22;8231;50.866;7.944;2023-05-07T12:12:40;23.60;94.40
16247;DHT22;8231;50.866;7.944;2023-05-07T12:15:10;23.70;97.80
16247;DHT22;8231;50.866;7.944;2023-05-07T12:17:40;23.40;99.90
16247;DHT22;8231;50.866;7.944;2023-05-07T12:20:09;23.10;99.90
16247;DHT22;8231;50.866;7.944;2023-05-07T12:22:38;22.90;99.90
16247;DHT22;8231;50.866;7.944;2023-05-07T12:25:07;22.40;99.90
16247;DHT22;8231;50.866;7.944;2023-05-07T12:27:37;21.90;99.90
16247;DHT22;8231;50.866;7.944;2023-05-07T12:30:11;21.40;99.90
16247;DHT22;8231;50.866;7.944;2023-05-07T12:32:40;21.30;99.90
16247;DHT22;8231;50.866;7.944;2023-05-07T12:35:08;21.20;99.90
16247;DHT22;8231;50.866;7.944;2023-05-07T12:37:37;21.20;99.90
16247;DHT22;8231;50.866;7.944;2023-05-07T12:40:07;21.00;99.90
16247;DHT22;8231;50.866;7.944;2023-05-07T12:42:36;21.00;99.90
16247;DHT22;8231;50.866;7.944;2023-05-07T12:45:11;21.00;99.90
16247;DHT22;8231;50.866;7.944;2023-05-07T12:47:43;21.00;99.90
16247;DHT22;8231;50.866;7.944;2023-05-07T12:50:13;20.90;99.90
16247;DHT22;8231;50.866;7.944;2023-05-07T12:52:43;20.80;99.90
16247;DHT22;8231;50.866;7.944;2023-05-07T12:55:14;20.70;99.90
16247;DHT22;8231;50.866;7.944;2023-05-07T12:57:45;20.80;99.90
16247;DHT22;8231;50.866;7.944;2023-05-07T13:00:16;20.70;99.90
16247;DHT22;8231;50.866;7.944;2023-05-07T13:02:44;20.60;99.90
16247;DHT22;8231;50.866;7.944;2023-05-07T13:05:13;20.50;99.90
16247;DHT22;8231;50.866;7.944;2023-05-07T13:07:52;20.50;99.90
16247;DHT22;8231;50.866;7.944;2023-05-07T13:10:21;20.30;99.90
16247;DHT22;8231;50.866;7.944;2023-05-07T13:12:50;20.20;99.90
16247;DHT22;8231;50.866;7.944;2023-05-07T13:15:20;20.00;99.90
16247;DHT22;8231;50.866;7.944;2023-05-07T13:17:48;20.00;99.90
16247;DHT22;8231;50.866;7.944;2023-05-07T13:20:17;20.00;99.90
16247;DHT22;8231;50.866;7.944;2023-05-07T13:22:45;19.80;99.90
16247;DHT22;8231;50.866;7.944;2023-05-07T13:25:13;19.80;99.90
16247;DHT22;8231;50.866;7.944;2023-05-07T13:27:42;19.70;99.90
16247;DHT22;8231;50.866;7.944;2023-05-07T13:30:10;19.60;99.90
16247;DHT22;8231;50.866;7.944;2023-05-07T13:32:40;19.60;99.90
16247;DHT22;8231;50.866;7.944;2023-05-07T13:35:08;19.70;99.90
16247;DHT22;8231;50.866;7.944;2023-05-07T13:37:37;19.60;99.90
16247;DHT22;8231;50.866;7.944;2023-05-07T13:40:07;19.60;99.90
16247;DHT22;8231;50.866;7.944;2023-05-07T13:42:36;19.70;99.90
16247;DHT22;8231;50.866;7.944;2023-05-07T13:45:06;19.80;99.90
16247;DHT22;8231;50.866;7.944;2023-05-07T13:47:34;19.80;99.90
16247;DHT22;8231;50.866;7.944;2023-05-07T13:50:09;19.80;99.90
16247;DHT22;8231;50.866;7.944;2023-05-07T13:52:39;19.80;99.90
16247;DHT22;8231;50.866;7.944;2023-05-07T13:55:08;19.80;99.90
16247;DHT22;8231;50.866;7.944;2023-05-07T13:57:36;19.90;99.90
16247;DHT22;8231;50.866;7.944;2023-05-07T14:00:06;19.90;99.90
16247;DHT22;8231;50.866;7.944;2023-05-07T14:02:41;19.90;99.90
16247;DHT22;8231;50.866;7.944;2023-05-07T14:05:11;19.90;99.90
16247;DHT22;8231;50.866;7.944;2023-05-07T14:07:40;19.90;99.90
16247;DHT22;8231;50.866;7.944;2023-05-07T14:10:09;19.80;99.90
16247;DHT22;8231;50.866;7.944;2023-05-07T14:12:43;19.80;99.90
16247;DHT22;8231;50.866;7.944;2023-05-07T14:15:13;19.70;99.90
16247;DHT22;8231;50.866;7.944;2023-05-07T14:17:41;19.60;99.90
16247;DHT22;8231;50.866;7.944;2023-05-07T14:20:12;19.60;99.90
16247;DHT22;8231;50.866;7.944;2023-05-07T14:22:40;19.60;99.90
16247;DHT22;8231;50.866;7.944;2023-05-07T14:25:09;19.50;99.90
16247;DHT22;8231;50.866;7.944;2023-05-07T14:27:38;19.50;99.90
16247;DHT22;8231;50.866;7.944;2023-05-07T14:30:07;19.40;99.90
16247;DHT22;8231;50.866;7.944;2023-05-07T14:32:36;19.20;99.90
16247;DHT22;8231;50.866;7.944;2023-05-07T14:35:05;19.10;99.90
16247;DHT22;8231;50.866;7.944;2023-05-07T14:37:34;19.00;99.90
16247;DHT22;8231;50.866;7.944;2023-05-07T14:40:04;18.80;99.90
16247;DHT22;8231;50.866;7.944;2023-05-07T14:42:33;18.70;99.90
16247;DHT22;8231;50.866;7.944;2023-05-07T14:45:01;18.60;99.90
16247;DHT22;8231;50.866;7.944;2023-05-07T14:47:30;18.50;99.90
16247;DHT22;8231;50.866;7.944;2023-05-07T14:49:59;18.50;99.90
16247;DHT22;8231;50.866;7.944;2023-05-07T14:52:28;18.50;99.90
16247;DHT22;8231;50.866;7.944;2023-05-07T14:54:57;18.50;99.90
16247;DHT22;8231;50.866;7.944;2023-05-07T14:57:26;18.50;99.90
16247;DHT22;8231;50.866;7.944;2023-05-07T14:59:59;18.40;99.90
16247;DHT22;8231;50.866;7.944;2023-05-07T15:02:27;18.40;99.90
16247;DHT22;8231;50.866;7.944;2023-05-07T15:04:56;18.40;99.90
16247;DHT22;8231;50.866;7.944;2023-05-07T15:07:24;18.40;99.90
16247;DHT22;8231;50.866;7.944;2023-05-07T15:09:53;18.50;99.90
16247;DHT22;8231;50.866;7.944;2023-05-07T15:12:22;18.50;99.90
16247;DHT22;8231;50.866;7.944;2023-05-07T15:14:51;18.50;99.90
16247;DHT22;8231;50.866;7.944;2023-05-07T15:17:19;18.80;99.90
16247;DHT22;8231;50.866;7.944;2023-05-07T15:19:47;18.50;99.90
16247;DHT22;8231;50.866;7.944;2023-05-07T15:22:16;18.40;99.90
16247;DHT22;8231;50.866;7.944;2023-05-07T15:24:44;18.30;99.90
16247;DHT22;8231;50.866;7.944;2023-05-07T15:27:13;18.30;99.90
16247;DHT22;8231;50.866;7.944;2023-05-07T15:29:42;18.30;99.90
16247;DHT22;8231;50.866;7.944;2023-05-07T15:32:10;18.20;99.90
16247;DHT22;8231;50.866;7.944;2023-05-07T15:34:40;18.20;99.90
16247;DHT22;8231;50.866;7.944;2023-05-07T15:37:10;18.10;99.90
16247;DHT22;8231;50.866;7.944;2023-05-07T15:39:38;18.10;99.90
16247;DHT22;8231;50.866;7.944;2023-05-07T15:42:07;18.00;99.90
16247;DHT22;8231;50.866;7.944;2023-05-07T15:44:35;18.00;99.90
16247;DHT22;8231;50.866;7.944;2023-05-07T15:47:05;18.00;99.90
16247;DHT22;8231;50.866;7.944;2023-05-07T15:49:33;18.20;99.90
16247;DHT22;8231;50.866;7.944;2023-05-07T15:52:02;18.40;99.90
16247;DHT22;8231;50.866;7.944;2023-05-07T15:54:30;18.00;99.90
16247;DHT22;8231;50.866;7.944;2023-05-07T15:56:58;17.90;99.90
16247;DHT22;8231;50.866;7.944;2023-05-07T15:59:27;18.00;99.90
16247;DHT22;8231;50.866;7.944;2023-05-07T16:01:56;17.80;99.90
16247;DHT22;8231;50.866;7.944;2023-05-07T16:04:26;17.80;99.90
16247;DHT22;8231;50.866;7.944;2023-05-07T16:21:34;17.60;99.90
16247;DHT22;8231;50.866;7.944;2023-05-07T16:24:03;17.20;99.90
16247;DHT22;8231;50.866;7.944;2023-05-07T16:26:31;17.10;99.90
16247;DHT22;8231;50.866;7.944;2023-05-07T16:29:00;17.10;99.90
16247;DHT22;8231;50.866;7.944;2023-05-07T16:31:28;17.20;99.90
16247;DHT22;8231;50.866;7.944;2023-05-07T16:33:58;17.30;99.90
16247;DHT22;8231;50.866;7.944;2023-05-07T16:36:27;17.20;99.90
16247;DHT22;8231;50.866;7.944;2023-05-07T16:38:57;17.30;99.90
16247;DHT22;8231;50.866;7.944;2023-05-07T16:41:25;17.10;99.90
16247;DHT22;8231;50.866;7.944;2023-05-07T16:43:53;16.90;99.90